createdAt,value
2019-03-28T00:01:39.456Z,99.90
2019-03-28T00:04:08.083Z,99.90
2019-03-28T00:06:42.400Z,99.90
2019-03-28T00:09:10.636Z,99.90
2019-03-28T00:11:38.947Z,99.90
2019-03-28T00:14:07.204Z,99.90
2019-03-28T00:16:35.806Z,99.90
2019-03-28T00:19:04.388Z,99.90
2019-03-28T00:21:32.883Z,99.90
2019-03-28T00:24:11.808Z,99.90
2019-03-28T00:26:40.058Z,99.90
2019-03-28T00:29:08.567Z,99.90
2019-03-28T00:31:37.056Z,99.90
2019-03-28T00:34:05.639Z,99.90
2019-03-28T00:36:33.881Z,99.90
2019-03-28T00:39:02.403Z,99.90
2019-03-28T00:41:30.996Z,99.90
2019-03-28T00:43:59.248Z,99.90
2019-03-28T00:46:27.764Z,99.90
2019-03-28T00:48:56.346Z,99.90
2019-03-28T00:51:25.150Z,99.90
2019-03-28T00:53:53.491Z,99.90
2019-03-28T00:56:21.737Z,99.90
2019-03-28T00:58:49.991Z,99.90
2019-03-28T01:01:18.580Z,99.90
2019-03-28T01:03:46.843Z,99.90
2019-03-28T01:06:15.083Z,99.90
2019-03-28T01:08:43.327Z,99.90
2019-03-28T01:11:12.123Z,99.90
2019-03-28T01:13:40.752Z,99.90
2019-03-28T01:16:09.276Z,99.90
2019-03-28T01:18:38.685Z,99.90
2019-03-28T01:21:06.950Z,99.90
2019-03-28T01:23:35.202Z,99.90
2019-03-28T01:26:04.035Z,99.90
2019-03-28T01:28:32.283Z,99.90
2019-03-28T01:31:00.546Z,99.90
2019-03-28T01:33:28.781Z,99.90
2019-03-28T01:35:57.288Z,99.90
2019-03-28T01:38:25.531Z,99.90
2019-03-28T01:40:53.787Z,99.90
2019-03-28T01:43:22.038Z,99.90
2019-03-28T01:45:50.275Z,99.90
2019-03-28T01:48:18.517Z,99.90
2019-03-28T01:50:47.052Z,99.90
2019-03-28T01:53:15.299Z,99.90
2019-03-28T01:55:43.809Z,99.90
2019-03-28T01:58:12.058Z,99.70
2019-03-28T02:00:40.317Z,99.70
2019-03-28T02:03:08.875Z,99.60
2019-03-28T02:05:37.114Z,99.60
2019-03-28T02:08:05.358Z,99.40
2019-03-28T02:10:33.911Z,99.50
2019-03-28T02:13:02.495Z,99.50
2019-03-28T02:15:31.092Z,99.50
2019-03-28T02:17:59.341Z,99.70
2019-03-28T02:20:27.668Z,99.70
2019-03-28T02:22:56.230Z,99.70
2019-03-28T02:25:24.740Z,99.70
2019-03-28T02:27:52.979Z,99.70
2019-03-28T02:30:27.246Z,99.80
2019-03-28T02:32:55.805Z,99.80
2019-03-28T02:35:24.064Z,99.80
2019-03-28T02:37:52.316Z,99.80
2019-03-28T02:40:20.853Z,99.90
2019-03-28T02:42:49.451Z,99.80
2019-03-28T02:45:17.774Z,99.80
2019-03-28T02:47:46.024Z,99.80
2019-03-28T02:50:14.272Z,99.80
2019-03-28T02:52:42.875Z,99.90
2019-03-28T02:55:11.127Z,99.80
2019-03-28T02:57:42.097Z,99.90
2019-03-28T03:00:09.628Z,99.90
2019-03-28T03:02:37.864Z,99.90
2019-03-28T03:05:07.556Z,99.90
2019-03-28T03:07:36.140Z,99.90
2019-03-28T03:10:07.728Z,99.90
2019-03-28T03:12:36.381Z,99.90
2019-03-28T03:15:06.920Z,99.90
2019-03-28T03:17:35.504Z,99.90
2019-03-28T03:20:06.085Z,99.90
2019-03-28T03:22:34.631Z,99.90
2019-03-28T03:25:03.359Z,99.90
2019-03-28T03:27:31.845Z,99.90
2019-03-28T03:30:00.689Z,99.90
2019-03-28T03:32:29.007Z,99.90
2019-03-28T03:35:00.630Z,99.90
2019-03-28T03:37:30.125Z,99.90
2019-03-28T03:39:58.506Z,99.90
2019-03-28T03:42:26.748Z,99.90
2019-03-28T03:44:54.993Z,99.90
2019-03-28T03:47:23.240Z,99.90
2019-03-28T03:49:51.496Z,99.90
2019-03-28T03:52:20.130Z,99.90
2019-03-28T03:54:48.371Z,99.90
2019-03-28T03:57:16.911Z,99.90
2019-03-28T03:59:45.479Z,99.90
2019-03-28T04:02:13.744Z,99.90
2019-03-28T04:04:41.983Z,99.90
2019-03-28T04:07:10.529Z,99.90
2019-03-28T04:09:38.822Z,99.90
2019-03-28T04:12:07.426Z,99.90
2019-03-28T04:14:35.721Z,99.90
2019-03-28T04:17:03.981Z,99.90
2019-03-28T04:19:32.443Z,99.90
2019-03-28T04:22:00.765Z,99.90
2019-03-28T04:24:29.020Z,99.90
2019-03-28T04:26:57.339Z,99.90
2019-03-28T04:29:25.979Z,99.90
2019-03-28T04:31:54.243Z,99.90
2019-03-28T04:34:22.556Z,99.90
2019-03-28T04:36:51.154Z,99.90
2019-03-28T04:39:19.731Z,99.90
2019-03-28T04:41:47.996Z,99.90
2019-03-28T04:44:16.636Z,99.90
2019-03-28T04:46:45.369Z,99.90
2019-03-28T04:49:15.716Z,99.90
2019-03-28T04:51:44.083Z,99.90
2019-03-28T04:54:12.669Z,99.90
2019-03-28T04:56:41.223Z,99.90
2019-03-28T04:59:09.747Z,99.90
2019-03-28T05:01:38.004Z,99.90
2019-03-28T05:04:06.347Z,99.90
2019-03-28T05:06:37.739Z,99.90
2019-03-28T05:09:05.731Z,99.90
2019-03-28T05:11:34.001Z,99.90
2019-03-28T05:14:02.509Z,99.90
2019-03-28T05:16:30.767Z,99.90
2019-03-28T05:18:59.011Z,99.90
2019-03-28T05:21:27.267Z,99.90
2019-03-28T05:23:55.502Z,99.90
2019-03-28T05:26:23.766Z,99.90
2019-03-28T05:28:57.315Z,99.90
2019-03-28T05:31:22.905Z,99.90
2019-03-28T05:33:51.151Z,99.90
2019-03-28T05:36:19.383Z,99.90
2019-03-28T05:38:47.648Z,99.90
2019-03-28T05:41:17.441Z,99.90
2019-03-28T05:43:46.019Z,99.90
2019-03-28T05:46:14.264Z,99.90
2019-03-28T05:48:42.513Z,99.90
2019-03-28T05:51:10.761Z,99.90
2019-03-28T05:53:39.017Z,99.90
2019-03-28T05:56:07.264Z,99.90
2019-03-28T05:58:35.540Z,99.90
2019-03-28T06:01:03.777Z,99.90
2019-03-28T06:03:32.025Z,99.90
2019-03-28T06:06:00.263Z,99.90
2019-03-28T06:08:28.519Z,99.90
2019-03-28T06:10:57.024Z,99.90
2019-03-28T06:13:25.635Z,99.90
2019-03-28T06:15:53.892Z,99.90
2019-03-28T06:18:23.053Z,99.90
2019-03-28T06:20:52.652Z,99.90
2019-03-28T06:23:21.922Z,99.80
2019-03-28T06:25:50.243Z,99.50
2019-03-28T06:28:19.483Z,99.20
2019-03-28T06:30:47.732Z,98.00
2019-03-28T06:33:15.982Z,96.90
2019-03-28T06:35:44.237Z,96.20
2019-03-28T06:38:12.466Z,96.70
2019-03-28T06:40:40.723Z,97.10
2019-03-28T06:43:08.976Z,96.70
2019-03-28T06:45:38.509Z,97.00
2019-03-28T06:48:06.743Z,97.30
2019-03-28T06:50:35.988Z,97.10
2019-03-28T06:53:04.292Z,97.00
2019-03-28T06:55:32.571Z,97.40
2019-03-28T06:58:01.071Z,97.30
2019-03-28T07:00:29.320Z,97.40
2019-03-28T07:02:58.823Z,97.40
2019-03-28T07:05:27.081Z,97.30
2019-03-28T07:07:55.587Z,97.30
2019-03-28T07:10:23.864Z,97.20
2019-03-28T07:12:53.064Z,97.00
2019-03-28T07:15:21.324Z,96.60
2019-03-28T07:17:49.856Z,97.10
2019-03-28T07:20:19.040Z,96.80
2019-03-28T07:22:47.540Z,96.20
2019-03-28T07:25:15.794Z,96.40
2019-03-28T07:27:44.390Z,95.80
2019-03-28T07:30:13.106Z,96.20
2019-03-28T07:32:43.322Z,95.80
2019-03-28T07:35:11.308Z,95.70
2019-03-28T07:37:39.881Z,94.80
2019-03-28T07:40:08.121Z,94.30
2019-03-28T07:42:36.375Z,94.50
2019-03-28T07:45:06.964Z,94.80
2019-03-28T07:47:35.212Z,93.90
2019-03-28T07:50:06.191Z,94.10
2019-03-28T07:52:35.370Z,94.20
2019-03-28T07:55:05.628Z,94.00
2019-03-28T07:57:34.408Z,94.20
2019-03-28T08:00:04.316Z,93.70
2019-03-28T08:02:32.991Z,94.20
2019-03-28T08:05:02.362Z,93.00
2019-03-28T08:07:44.009Z,92.80
2019-03-28T08:10:00.742Z,92.90
2019-03-28T08:12:29.067Z,91.60
2019-03-28T08:14:57.318Z,91.60
2019-03-28T08:17:25.871Z,90.00
2019-03-28T08:19:54.138Z,88.60
2019-03-28T08:22:22.747Z,84.70
2019-03-28T08:24:51.004Z,86.70
2019-03-28T08:27:19.603Z,84.70
2019-03-28T08:29:48.197Z,85.70
2019-03-28T08:32:18.458Z,86.90
2019-03-28T08:34:46.752Z,88.60
2019-03-28T08:37:14.988Z,87.10
2019-03-28T08:39:44.663Z,88.70
2019-03-28T08:42:14.063Z,88.10
2019-03-28T08:44:43.720Z,86.90
2019-03-28T08:47:11.965Z,86.60
2019-03-28T08:49:40.216Z,84.70
2019-03-28T08:52:11.623Z,84.10
2019-03-28T08:54:39.706Z,82.70
2019-03-28T08:57:07.962Z,81.90
2019-03-28T08:59:36.221Z,82.90
2019-03-28T09:02:05.137Z,83.00
2019-03-28T09:04:34.453Z,82.50
2019-03-28T09:07:02.690Z,80.40
2019-03-28T09:09:30.939Z,80.60
2019-03-28T09:12:00.084Z,81.50
2019-03-28T09:14:31.685Z,80.80
2019-03-28T09:16:58.631Z,82.10
2019-03-28T09:19:26.897Z,82.60
2019-03-28T09:21:55.499Z,83.80
2019-03-28T09:24:24.079Z,83.70
2019-03-28T09:26:52.335Z,84.00
2019-03-28T09:29:20.859Z,84.70
2019-03-28T09:31:49.373Z,82.90
2019-03-28T09:34:17.624Z,81.40
2019-03-28T09:36:46.899Z,82.70
2019-03-28T09:39:16.100Z,81.40
2019-03-28T09:41:44.710Z,80.90
2019-03-28T09:44:13.296Z,79.20
2019-03-28T09:46:42.804Z,77.50
2019-03-28T09:49:11.391Z,76.80
2019-03-28T09:51:39.979Z,76.80
2019-03-28T09:54:08.227Z,78.20
2019-03-28T09:56:37.723Z,77.90
2019-03-28T09:59:05.961Z,78.90
2019-03-28T10:01:34.203Z,78.50
2019-03-28T10:04:02.471Z,78.80
2019-03-28T10:06:30.719Z,79.00
2019-03-28T10:08:58.980Z,77.90
2019-03-28T10:11:27.283Z,77.90
2019-03-28T10:13:55.839Z,77.00
2019-03-28T10:16:24.429Z,78.10
2019-03-28T10:18:53.011Z,79.70
2019-03-28T10:21:21.609Z,79.80
2019-03-28T10:23:49.884Z,80.50
2019-03-28T10:26:18.197Z,79.60
2019-03-28T10:28:46.444Z,80.00
2019-03-28T10:31:16.600Z,80.00
2019-03-28T10:33:44.948Z,79.90
2019-03-28T10:36:13.216Z,79.90
2019-03-28T10:38:41.465Z,79.30
2019-03-28T10:41:09.707Z,80.30
2019-03-28T10:43:38.275Z,80.50
2019-03-28T10:46:06.545Z,78.90
2019-03-28T10:48:34.791Z,80.40
2019-03-28T10:51:03.324Z,80.20
2019-03-28T10:53:31.928Z,80.50
2019-03-28T10:56:00.197Z,80.00
2019-03-28T10:58:28.439Z,79.90
2019-03-28T11:00:56.747Z,80.60
2019-03-28T11:03:25.015Z,79.80
2019-03-28T11:05:53.632Z,80.50
2019-03-28T11:08:22.217Z,80.20
2019-03-28T11:10:52.403Z,80.70
2019-03-28T11:13:20.920Z,80.50
2019-03-28T11:15:49.196Z,80.30
2019-03-28T11:18:17.435Z,80.30
2019-03-28T11:20:45.691Z,80.30
2019-03-28T11:23:13.956Z,80.20
2019-03-28T11:25:45.191Z,80.00
2019-03-28T11:28:13.503Z,80.20
2019-03-28T11:30:41.787Z,80.70
2019-03-28T11:33:10.106Z,80.00
2019-03-28T11:35:38.356Z,81.10
2019-03-28T11:38:09.468Z,81.60
2019-03-28T11:40:36.592Z,82.00
2019-03-28T11:43:04.849Z,82.70
2019-03-28T11:45:33.167Z,82.20
2019-03-28T11:48:01.428Z,81.20
2019-03-28T11:50:29.669Z,81.40
2019-03-28T11:52:57.926Z,80.00
2019-03-28T11:55:26.181Z,79.60
2019-03-28T11:57:56.449Z,79.50
2019-03-28T12:00:24.699Z,79.50
2019-03-28T12:02:52.979Z,77.80
2019-03-28T12:05:21.242Z,77.30
2019-03-28T12:07:49.750Z,76.70
2019-03-28T12:10:19.271Z,77.00
2019-03-28T12:12:47.858Z,77.70
2019-03-28T12:15:16.436Z,76.60
2019-03-28T12:17:45.015Z,77.00
2019-03-28T12:20:13.613Z,76.30
2019-03-28T12:22:42.197Z,77.20
2019-03-28T12:25:10.439Z,77.70
2019-03-28T12:27:38.690Z,78.20
2019-03-28T12:30:08.682Z,78.00
2019-03-28T12:32:36.941Z,78.20
2019-03-28T12:35:06.769Z,78.50
2019-03-28T12:37:35.027Z,76.50
2019-03-28T12:40:05.558Z,77.80
2019-03-28T12:42:34.870Z,78.20
2019-03-28T12:45:05.631Z,78.00
2019-03-28T12:47:42.189Z,77.90
2019-03-28T12:50:10.732Z,78.50
2019-03-28T12:52:39.025Z,79.30
2019-03-28T12:55:08.388Z,79.40
2019-03-28T12:57:37.029Z,79.80
2019-03-28T13:00:08.275Z,80.60
2019-03-28T13:02:38.176Z,80.80
2019-03-28T13:05:09.435Z,80.20
2019-03-28T13:07:37.925Z,81.00
2019-03-28T13:10:07.467Z,80.80
2019-03-28T13:12:36.054Z,80.60
2019-03-28T13:15:04.524Z,80.70
2019-03-28T13:17:33.123Z,80.90
2019-03-28T13:20:01.375Z,81.20
2019-03-28T13:22:29.624Z,82.10
2019-03-28T13:24:58.875Z,80.80
2019-03-28T13:27:27.119Z,81.30
2019-03-28T13:29:56.685Z,81.90
2019-03-28T13:32:24.923Z,81.90
2019-03-28T13:34:53.203Z,81.50
2019-03-28T13:37:21.456Z,81.80
2019-03-28T13:39:49.698Z,81.60
2019-03-28T13:42:18.882Z,81.40
2019-03-28T13:44:47.175Z,81.20
2019-03-28T13:47:15.467Z,80.30
2019-03-28T13:49:43.715Z,80.90
2019-03-28T13:52:12.251Z,80.30
2019-03-28T13:54:40.499Z,80.40
2019-03-28T13:57:09.096Z,81.20
2019-03-28T13:59:37.346Z,81.20
2019-03-28T14:02:07.093Z,80.20
2019-03-28T14:04:35.779Z,79.30
2019-03-28T14:07:04.292Z,79.30
2019-03-28T14:09:32.534Z,79.90
2019-03-28T14:12:00.779Z,79.70
2019-03-28T14:14:29.419Z,80.00
2019-03-28T14:16:57.700Z,81.50
2019-03-28T14:19:25.962Z,80.50
2019-03-28T14:21:54.455Z,80.60
2019-03-28T14:24:22.697Z,81.00
2019-03-28T14:26:51.227Z,81.30
2019-03-28T14:29:19.486Z,81.00
2019-03-28T14:31:47.799Z,81.10
2019-03-28T14:34:16.043Z,80.60
2019-03-28T14:36:44.656Z,80.70
2019-03-28T14:39:13.264Z,81.30
2019-03-28T14:41:41.839Z,81.70
2019-03-28T14:44:10.075Z,81.80
2019-03-28T14:46:40.238Z,82.60
2019-03-28T14:49:08.852Z,82.50
2019-03-28T14:51:37.454Z,83.00
2019-03-28T14:54:06.112Z,82.90
2019-03-28T14:56:34.687Z,82.90
2019-03-28T14:59:03.208Z,83.80
2019-03-28T15:01:31.432Z,83.30
2019-03-28T15:03:59.683Z,83.60
2019-03-28T15:06:28.220Z,83.50
2019-03-28T15:08:56.808Z,83.90
2019-03-28T15:11:25.432Z,84.00
2019-03-28T15:13:53.921Z,84.30
2019-03-28T15:16:22.479Z,84.30
2019-03-28T15:18:51.637Z,84.00
2019-03-28T15:21:20.007Z,84.20
2019-03-28T15:23:48.238Z,84.70
2019-03-28T15:26:16.523Z,85.00
2019-03-28T15:28:44.824Z,85.20
2019-03-28T15:31:13.075Z,85.20
2019-03-28T15:33:41.343Z,85.20
2019-03-28T15:36:09.592Z,85.00
2019-03-28T15:38:37.840Z,84.40
2019-03-28T15:41:06.162Z,85.20
2019-03-28T15:43:34.791Z,85.30
2019-03-28T15:46:03.039Z,85.20
2019-03-28T15:48:31.564Z,85.10
2019-03-28T15:50:59.846Z,85.20
2019-03-28T15:53:28.097Z,85.70
2019-03-28T15:55:56.711Z,85.90
2019-03-28T15:58:24.955Z,85.80
2019-03-28T16:00:53.471Z,85.00
2019-03-28T16:03:22.060Z,85.30
2019-03-28T16:05:58.143Z,86.00
2019-03-28T16:08:20.875Z,86.70
2019-03-28T16:10:49.195Z,87.50
2019-03-28T16:13:17.741Z,87.00
2019-03-28T16:15:45.991Z,87.60
2019-03-28T16:18:14.262Z,87.60
2019-03-28T16:20:42.527Z,86.80
2019-03-28T16:23:10.767Z,87.20
2019-03-28T16:25:39.365Z,87.30
2019-03-28T16:28:07.674Z,87.60
2019-03-28T16:30:37.183Z,87.80
2019-03-28T16:33:05.875Z,87.80
2019-03-28T16:35:34.144Z,88.10
2019-03-28T16:38:02.377Z,88.10
2019-03-28T16:40:31.172Z,88.50
2019-03-28T16:42:59.567Z,88.50
2019-03-28T16:45:27.839Z,88.40
2019-03-28T16:47:56.080Z,88.60
2019-03-28T16:50:24.327Z,88.30
2019-03-28T16:52:52.899Z,88.30
2019-03-28T16:55:26.513Z,88.60
2019-03-28T16:57:51.399Z,89.10
2019-03-28T17:00:19.639Z,89.10
2019-03-28T17:02:47.906Z,89.50
2019-03-28T17:05:16.448Z,90.00
2019-03-28T17:07:45.286Z,89.40
2019-03-28T17:10:17.126Z,90.00
2019-03-28T17:12:45.574Z,90.10
2019-03-28T17:15:14.036Z,90.30
2019-03-28T17:17:42.660Z,90.20
2019-03-28T17:20:11.243Z,90.30
2019-03-28T17:22:39.505Z,90.20
2019-03-28T17:25:07.763Z,90.30
2019-03-28T17:27:36.287Z,90.60
2019-03-28T17:30:07.235Z,90.60
2019-03-28T17:32:36.918Z,90.80
2019-03-28T17:35:06.099Z,90.80
2019-03-28T17:37:34.375Z,91.10
2019-03-28T17:40:02.915Z,91.20
2019-03-28T17:42:31.501Z,91.30
2019-03-28T17:44:59.861Z,91.40
2019-03-28T17:47:28.473Z,91.50
2019-03-28T17:49:56.719Z,91.40
2019-03-28T17:52:24.972Z,91.30
2019-03-28T17:54:53.531Z,91.20
2019-03-28T17:57:21.780Z,91.30
2019-03-28T17:59:50.029Z,91.50
2019-03-28T18:02:18.312Z,91.60
2019-03-28T18:04:48.132Z,91.60
2019-03-28T18:07:17.351Z,91.70
2019-03-28T18:09:45.797Z,91.80
2019-03-28T18:12:14.076Z,91.90
2019-03-28T18:14:42.389Z,91.80
2019-03-28T18:17:11.091Z,92.00
2019-03-28T18:19:39.763Z,92.00
2019-03-28T18:22:08.188Z,92.10
2019-03-28T18:24:36.487Z,92.20
2019-03-28T18:27:05.059Z,92.20
2019-03-28T18:29:35.896Z,92.20
2019-03-28T18:32:04.216Z,92.40
2019-03-28T18:34:32.479Z,92.40
2019-03-28T18:37:00.731Z,92.50
2019-03-28T18:39:29.343Z,92.60
2019-03-28T18:41:57.592Z,92.80
2019-03-28T18:44:26.199Z,92.80
2019-03-28T18:46:54.784Z,93.10
2019-03-28T18:49:23.961Z,93.00
2019-03-28T18:51:52.435Z,93.00
2019-03-28T18:54:20.826Z,93.40
2019-03-28T18:56:49.647Z,93.50
2019-03-28T18:59:18.178Z,93.70
2019-03-28T19:01:46.423Z,93.70
2019-03-28T19:04:14.933Z,93.60
2019-03-28T19:06:43.605Z,93.70
2019-03-28T19:09:12.275Z,93.80
2019-03-28T19:11:41.039Z,93.90
2019-03-28T19:14:09.621Z,94.10
2019-03-28T19:16:38.155Z,94.30
2019-03-28T19:19:06.727Z,94.40
2019-03-28T19:21:35.004Z,94.50
2019-03-28T19:24:03.459Z,94.70
2019-03-28T19:26:31.896Z,94.80
2019-03-28T19:29:00.145Z,95.00
2019-03-28T19:31:28.397Z,95.10
2019-03-28T19:33:57.033Z,95.50
2019-03-28T19:36:25.293Z,95.50
2019-03-28T19:38:53.793Z,95.90
2019-03-28T19:41:22.319Z,95.60
2019-03-28T19:43:50.570Z,95.90
2019-03-28T19:46:19.147Z,95.90
2019-03-28T19:48:48.655Z,96.00
2019-03-28T19:51:17.343Z,96.00
2019-03-28T19:53:45.642Z,96.10
2019-03-28T19:56:13.956Z,96.20
2019-03-28T19:58:42.215Z,96.30
2019-03-28T20:01:10.583Z,96.60
2019-03-28T20:03:38.903Z,96.80
2019-03-28T20:06:07.163Z,96.70
2019-03-28T20:08:35.418Z,96.80
2019-03-28T20:11:03.788Z,97.00
2019-03-28T20:13:32.198Z,97.30
2019-03-28T20:16:00.972Z,97.50
2019-03-28T20:18:29.671Z,97.50
2019-03-28T20:20:57.910Z,97.80
2019-03-28T20:23:26.429Z,97.70
2019-03-28T20:25:55.231Z,97.70
2019-03-28T20:28:26.917Z,97.80
2019-03-28T20:30:56.511Z,98.10
2019-03-28T20:33:25.346Z,97.60
2019-03-28T20:36:11.794Z,97.90
2019-03-28T20:38:24.448Z,97.70
2019-03-28T20:40:52.804Z,97.60
2019-03-28T20:43:21.245Z,97.50
2019-03-28T20:45:49.860Z,97.40
2019-03-28T20:48:18.451Z,97.40
2019-03-28T20:50:46.747Z,97.40
2019-03-28T20:53:16.354Z,97.40
2019-03-28T20:55:45.599Z,97.40
2019-03-28T20:58:14.703Z,97.50
2019-03-28T21:00:45.462Z,97.60
2019-03-28T21:03:15.029Z,97.50
2019-03-28T21:05:44.371Z,97.70
2019-03-28T21:08:12.789Z,97.80
2019-03-28T21:10:41.030Z,97.70
2019-03-28T21:13:09.844Z,97.70
2019-03-28T21:15:39.981Z,97.70
2019-03-28T21:18:08.556Z,97.50
2019-03-28T21:20:37.559Z,97.50
2019-03-28T21:23:06.264Z,97.80
2019-03-28T21:25:35.400Z,97.50
2019-03-28T21:28:03.644Z,97.60
2019-03-28T21:30:32.335Z,97.70
2019-03-28T21:33:00.942Z,97.80
2019-03-28T21:35:29.234Z,97.90
2019-03-28T21:37:57.877Z,98.10
2019-03-28T21:40:26.194Z,98.00
2019-03-28T21:42:54.515Z,98.00
2019-03-28T21:45:23.031Z,98.00
2019-03-28T21:47:52.637Z,98.00
2019-03-28T21:50:21.394Z,98.00
2019-03-28T21:52:49.800Z,98.00
2019-03-28T21:55:18.115Z,98.00
2019-03-28T21:57:46.696Z,98.20
2019-03-28T22:00:15.766Z,98.70
2019-03-28T22:02:44.097Z,98.70
2019-03-28T22:05:12.337Z,98.70
2019-03-28T22:07:41.127Z,98.70
2019-03-28T22:10:10.476Z,98.80
2019-03-28T22:12:38.725Z,98.80
2019-03-28T22:15:07.587Z,98.90
2019-03-28T22:17:36.298Z,98.90
2019-03-28T22:20:06.625Z,98.80
2019-03-28T22:22:34.863Z,98.80
2019-03-28T22:25:03.604Z,98.80
2019-03-28T22:27:32.304Z,98.80
2019-03-28T22:30:01.010Z,98.80
2019-03-28T22:32:29.569Z,98.80
2019-03-28T22:34:58.083Z,98.70
2019-03-28T22:37:26.660Z,98.60
2019-03-28T22:39:55.231Z,98.60
2019-03-28T22:42:24.133Z,98.60
2019-03-28T22:44:54.366Z,98.60
2019-03-28T22:47:23.537Z,98.60
2019-03-28T22:49:52.054Z,98.70
2019-03-28T22:52:20.627Z,98.60
2019-03-28T22:54:49.216Z,98.70
2019-03-28T22:57:17.466Z,98.60
2019-03-28T22:59:47.359Z,98.50
2019-03-28T23:02:15.951Z,98.40
2019-03-28T23:04:44.331Z,98.40
2019-03-28T23:07:12.865Z,98.50
2019-03-28T23:09:41.130Z,98.50
2019-03-28T23:12:09.643Z,98.60
2019-03-28T23:14:38.807Z,98.50
2019-03-28T23:17:07.992Z,98.50
2019-03-28T23:19:48.453Z,98.40
2019-03-28T23:22:19.474Z,98.40
2019-03-28T23:24:47.727Z,98.70
2019-03-28T23:27:16.316Z,98.60
2019-03-28T23:29:44.577Z,98.60
2019-03-28T23:32:13.202Z,98.50
2019-03-28T23:34:41.509Z,98.40
2019-03-28T23:37:09.814Z,98.50
2019-03-28T23:39:38.131Z,98.50
2019-03-28T23:42:06.386Z,98.50
2019-03-28T23:44:34.619Z,98.50
2019-03-28T23:47:03.856Z,98.50
2019-03-28T23:49:32.194Z,98.40
2019-03-28T23:52:00.763Z,98.50
2019-03-28T23:54:28.994Z,98.70
2019-03-28T23:56:57.244Z,98.60
2019-03-28T23:59:25.818Z,98.70
